createdAt,value
2023-05-05T00:01:33.174Z,219.27
2023-05-05T00:04:00.325Z,216.07
2023-05-05T00:06:31.276Z,218.50
2023-05-05T00:08:58.328Z,214.23
2023-05-05T00:11:26.019Z,217.87
2023-05-05T00:13:52.970Z,214.13
2023-05-05T00:16:20.030Z,214.17
2023-05-05T00:18:47.347Z,219.70
2023-05-05T00:21:14.353Z,213.00
2023-05-05T00:23:41.359Z,217.63
2023-05-05T00:26:08.367Z,219.47
2023-05-05T00:28:35.289Z,215.30
2023-05-05T00:31:02.439Z,215.57
2023-05-05T00:33:29.485Z,216.10
2023-05-05T00:35:56.447Z,212.27
2023-05-05T00:38:23.419Z,220.73
2023-05-05T00:40:50.681Z,214.33
2023-05-05T00:43:17.690Z,216.20
2023-05-05T00:45:47.569Z,209.93
2023-05-05T00:48:14.783Z,211.67
2023-05-05T00:50:44.866Z,218.53
2023-05-05T00:53:13.088Z,213.63
2023-05-05T00:55:40.465Z,209.40
2023-05-05T00:58:07.991Z,215.27
2023-05-05T01:00:35.111Z,215.10
2023-05-05T01:03:02.199Z,215.77
2023-05-05T01:06:10.242Z,210.73
2023-05-05T01:08:44.901Z,216.87
2023-05-05T01:11:46.453Z,211.57
2023-05-05T01:14:19.283Z,213.30
2023-05-05T01:17:20.210Z,217.33
2023-05-05T01:20:00.680Z,207.67
2023-05-05T01:22:46.958Z,218.00
2023-05-05T01:26:02.702Z,212.27
2023-05-05T01:28:45.314Z,208.90
2023-05-05T01:31:21.694Z,216.67
2023-05-05T01:33:53.188Z,216.37
2023-05-05T01:36:38.928Z,213.23
2023-05-05T01:39:09.259Z,211.20
2023-05-05T01:41:43.819Z,216.50
2023-05-05T01:44:13.727Z,217.97
2023-05-05T01:46:40.771Z,222.03
2023-05-05T01:49:10.143Z,222.10
2023-05-05T01:51:39.190Z,215.93
2023-05-05T01:54:08.624Z,213.93
2023-05-05T01:56:38.910Z,222.03
2023-05-05T01:59:07.150Z,213.83
2023-05-05T02:01:39.134Z,214.77
2023-05-05T02:04:09.787Z,139.52
2023-05-05T02:06:39.457Z,368.38
2023-05-05T02:09:09.725Z,209.67
2023-05-05T02:11:36.871Z,275.17
2023-05-05T02:14:05.681Z,239.13
2023-05-05T02:16:34.039Z,216.27
2023-05-05T02:19:06.561Z,212.87
2023-05-05T02:21:34.532Z,210.03
2023-05-05T02:24:01.934Z,215.10
2023-05-05T02:26:33.790Z,211.13
2023-05-05T02:29:16.912Z,221.60
2023-05-05T02:31:55.857Z,209.37
2023-05-05T02:34:28.246Z,212.87
2023-05-05T02:37:03.922Z,214.07
2023-05-05T02:39:47.121Z,215.63
2023-05-05T02:42:21.820Z,217.10
2023-05-05T02:44:54.160Z,211.77
2023-05-05T02:47:21.456Z,214.23
2023-05-05T02:49:51.691Z,213.73
2023-05-05T02:52:18.682Z,215.03
2023-05-05T02:54:48.016Z,212.63
2023-05-05T02:57:21.237Z,215.80
2023-05-05T03:00:09.583Z,213.63
2023-05-05T03:02:51.236Z,208.70
2023-05-05T03:05:40.354Z,217.07
2023-05-05T03:08:20.624Z,212.50
2023-05-05T03:11:05.001Z,209.87
2023-05-05T03:13:37.209Z,206.70
2023-05-05T03:16:07.431Z,210.93
2023-05-05T03:18:35.570Z,206.53
2023-05-05T03:21:08.705Z,207.97
2023-05-05T03:23:38.588Z,211.40
2023-05-05T03:26:11.039Z,211.00
2023-05-05T03:28:42.127Z,209.67
2023-05-05T03:31:18.511Z,210.87
2023-05-05T03:33:49.906Z,212.30
2023-05-05T03:36:18.836Z,210.13
2023-05-05T03:38:46.476Z,208.33
2023-05-05T03:41:13.512Z,213.93
2023-05-05T03:43:42.426Z,210.30
2023-05-05T03:46:10.372Z,210.80
2023-05-05T03:48:37.901Z,212.53
2023-05-05T03:51:04.862Z,211.60
2023-05-05T03:53:34.511Z,214.57
2023-05-05T03:56:05.566Z,216.93
2023-05-05T03:58:32.685Z,213.57
2023-05-05T04:00:59.766Z,211.47
2023-05-05T04:03:27.066Z,208.00
2023-05-05T04:05:54.198Z,211.63
2023-05-05T04:08:22.451Z,212.33
2023-05-05T04:10:49.500Z,209.97
2023-05-05T04:13:16.527Z,209.97
2023-05-05T04:15:47.132Z,213.57
2023-05-05T04:18:15.822Z,213.27
2023-05-05T04:20:43.289Z,213.43
2023-05-05T04:23:11.341Z,215.23
2023-05-05T04:25:39.173Z,207.47
2023-05-05T04:28:06.529Z,205.63
2023-05-05T04:30:33.582Z,213.23
2023-05-05T04:33:00.893Z,210.97
2023-05-05T04:35:28.417Z,210.50
2023-05-05T04:37:55.600Z,214.33
2023-05-05T04:40:22.979Z,204.90
2023-05-05T04:42:49.992Z,213.90
2023-05-05T04:45:17.247Z,211.37
2023-05-05T04:47:44.436Z,204.87
2023-05-05T04:50:12.047Z,211.43
2023-05-05T04:52:40.203Z,211.50
2023-05-05T04:55:09.052Z,209.53
2023-05-05T04:57:36.366Z,215.27
2023-05-05T05:00:05.392Z,210.37
2023-05-05T05:02:33.083Z,212.57
2023-05-05T05:05:00.194Z,208.90
2023-05-05T05:07:27.268Z,211.37
2023-05-05T05:09:54.349Z,214.10
2023-05-05T05:12:21.767Z,212.43
2023-05-05T05:14:48.809Z,217.03
2023-05-05T05:17:15.814Z,216.10
2023-05-05T05:19:42.846Z,209.17
2023-05-05T05:22:10.692Z,218.90
2023-05-05T05:24:40.326Z,221.15
2023-05-05T05:27:10.160Z,216.47
2023-05-05T05:29:39.525Z,210.38
2023-05-05T05:32:06.757Z,217.60
2023-05-05T05:34:34.246Z,220.20
2023-05-05T05:37:02.105Z,214.23
2023-05-05T05:39:29.186Z,215.55
2023-05-05T05:41:56.203Z,222.77
2023-05-05T05:44:23.540Z,215.60
2023-05-05T05:46:50.593Z,218.50
2023-05-05T05:49:17.765Z,221.27
2023-05-05T05:51:45.111Z,217.65
2023-05-05T05:54:12.934Z,224.52
2023-05-05T05:56:40.849Z,214.27
2023-05-05T05:59:10.082Z,220.07
2023-05-05T06:01:40.314Z,215.40
2023-05-05T06:04:08.169Z,222.98
2023-05-05T06:06:35.531Z,221.55
2023-05-05T06:09:02.662Z,228.25
2023-05-05T06:11:31.744Z,219.07
2023-05-05T06:13:58.790Z,226.23
2023-05-05T06:16:26.603Z,224.65
2023-05-05T06:18:53.731Z,224.70
2023-05-05T06:21:20.907Z,223.63
2023-05-05T06:23:48.109Z,214.73
2023-05-05T06:26:15.754Z,221.75
2023-05-05T06:28:42.754Z,223.10
2023-05-05T06:31:09.943Z,216.43
2023-05-05T06:33:36.910Z,217.23
2023-05-05T06:36:04.287Z,216.68
2023-05-05T06:38:31.396Z,228.27
2023-05-05T06:40:58.666Z,219.27
2023-05-05T06:43:25.776Z,219.68
2023-05-05T06:45:57.635Z,226.40
2023-05-05T06:48:24.592Z,219.52
2023-05-05T06:50:51.577Z,220.38
2023-05-05T06:53:18.597Z,229.07
2023-05-05T06:55:47.032Z,230.00
2023-05-05T06:58:14.300Z,226.52
2023-05-05T07:00:42.173Z,224.30
2023-05-05T07:03:09.346Z,221.48
2023-05-05T07:05:36.776Z,229.82
2023-05-05T07:08:03.780Z,218.18
2023-05-05T07:10:31.893Z,221.27
2023-05-05T07:12:58.972Z,220.18
2023-05-05T07:15:29.233Z,219.02
2023-05-05T07:17:57.381Z,222.75
2023-05-05T07:20:25.075Z,221.98
2023-05-05T07:22:52.135Z,221.70
2023-05-05T07:25:19.464Z,229.13
2023-05-05T07:27:46.485Z,226.07
2023-05-05T07:30:16.535Z,222.90
2023-05-05T07:32:45.894Z,223.95
2023-05-05T07:35:13.121Z,221.82
2023-05-05T07:37:40.114Z,224.93
2023-05-05T07:40:08.733Z,225.73
2023-05-05T07:42:35.974Z,218.73
2023-05-05T07:45:03.616Z,227.63
2023-05-05T07:47:30.680Z,222.63
2023-05-05T07:49:57.877Z,218.63
2023-05-05T07:52:37.697Z,222.75
2023-05-05T07:55:12.005Z,226.10
2023-05-05T07:57:39.387Z,217.00
2023-05-05T08:00:07.445Z,220.75
2023-05-05T08:02:41.186Z,215.18
2023-05-05T08:05:09.471Z,222.43
2023-05-05T08:07:40.992Z,219.48
2023-05-05T08:10:10.733Z,217.45
2023-05-05T08:12:38.226Z,211.43
2023-05-05T08:15:06.642Z,213.27
2023-05-05T08:17:52.004Z,215.45
2023-05-05T08:20:21.100Z,209.73
2023-05-05T08:22:48.410Z,202.75
2023-05-05T08:25:15.668Z,211.63
2023-05-05T08:27:43.254Z,208.32
2023-05-05T08:30:11.252Z,207.10
2023-05-05T08:32:41.172Z,211.65
2023-05-05T08:35:08.947Z,212.73
2023-05-05T08:37:36.273Z,208.20
2023-05-05T08:40:03.723Z,210.68
2023-05-05T08:42:37.955Z,208.25
2023-05-05T08:45:10.702Z,202.88
2023-05-05T08:47:39.177Z,204.15
2023-05-05T08:50:10.414Z,205.43
2023-05-05T08:52:45.864Z,206.00
2023-05-05T08:55:27.784Z,225.52
2023-05-05T08:57:58.485Z,210.85
2023-05-05T09:00:28.614Z,211.02
2023-05-05T09:03:00.180Z,210.55
2023-05-05T09:05:28.801Z,209.63
2023-05-05T09:07:55.886Z,209.02
2023-05-05T09:10:23.164Z,215.70
2023-05-05T09:12:51.544Z,199.20
2023-05-05T09:15:18.812Z,207.70
2023-05-05T09:17:46.432Z,208.48
2023-05-05T09:20:15.013Z,201.50
2023-05-05T09:22:46.760Z,196.95
2023-05-05T09:25:18.637Z,207.63
2023-05-05T09:27:49.740Z,196.25
2023-05-05T09:30:29.105Z,190.52
2023-05-05T09:32:56.312Z,185.73
2023-05-05T09:35:23.678Z,191.05
2023-05-05T09:37:50.835Z,193.25
2023-05-05T09:40:20.705Z,184.55
2023-05-05T09:42:48.148Z,185.07
2023-05-05T09:45:18.210Z,187.88
2023-05-05T09:47:47.330Z,189.40
2023-05-05T09:50:18.195Z,182.57
2023-05-05T09:53:02.514Z,179.73
2023-05-05T09:55:33.596Z,184.48
2023-05-05T09:58:21.339Z,194.38
2023-05-05T10:00:48.479Z,190.80
2023-05-05T10:03:16.370Z,194.32
2023-05-05T10:05:55.764Z,197.07
2023-05-05T10:08:34.081Z,196.60
2023-05-05T10:11:07.280Z,198.27
2023-05-05T10:13:40.975Z,200.93
2023-05-05T10:16:09.694Z,198.43
2023-05-05T10:18:40.257Z,184.75
2023-05-05T10:21:09.023Z,194.35
2023-05-05T10:23:50.268Z,205.40
2023-05-05T10:26:19.753Z,189.70
2023-05-05T10:29:13.446Z,183.48
2023-05-05T10:31:48.163Z,166.93
2023-05-05T10:34:41.184Z,169.68
2023-05-05T10:37:08.618Z,163.98
2023-05-05T10:39:37.816Z,159.65
2023-05-05T10:42:05.206Z,166.65
2023-05-05T10:44:33.271Z,170.77
2023-05-05T10:47:02.031Z,186.20
2023-05-05T10:49:47.414Z,180.85
2023-05-05T10:53:01.645Z,179.48
2023-05-05T10:55:46.138Z,177.98
2023-05-05T10:58:51.115Z,167.35
2023-05-05T11:01:33.224Z,164.25
2023-05-05T11:04:23.530Z,177.55
2023-05-05T11:07:11.618Z,157.90
2023-05-05T11:10:05.362Z,167.73
2023-05-05T11:13:06.162Z,164.98
2023-05-05T11:15:37.969Z,168.07
2023-05-05T11:18:07.834Z,163.00
2023-05-05T11:20:35.932Z,173.45
2023-05-05T11:23:02.929Z,167.40
2023-05-05T11:25:36.450Z,163.43
2023-05-05T11:28:08.974Z,165.63
2023-05-05T11:30:57.562Z,164.35
2023-05-05T11:33:37.010Z,171.85
2023-05-05T11:36:18.238Z,172.13
2023-05-05T11:39:19.504Z,174.45
2023-05-05T11:42:10.455Z,165.75
2023-05-05T11:44:38.149Z,166.70
2023-05-05T11:47:05.050Z,175.95
2023-05-05T11:49:34.859Z,172.02
2023-05-05T11:52:07.313Z,168.85
2023-05-05T11:54:48.105Z,165.10
2023-05-05T11:57:20.936Z,169.05
2023-05-05T11:59:58.913Z,157.13
2023-05-05T12:02:27.965Z,166.63
2023-05-05T12:04:56.538Z,156.52
2023-05-05T12:07:30.202Z,157.55
2023-05-05T12:09:57.406Z,156.05
2023-05-05T12:12:39.427Z,161.43
2023-05-05T12:15:07.947Z,172.10
2023-05-05T12:17:45.016Z,171.15
2023-05-05T12:20:13.423Z,163.77
2023-05-05T12:22:41.058Z,160.73
2023-05-05T12:25:09.238Z,169.60
2023-05-05T12:27:36.434Z,172.35
2023-05-05T12:30:18.377Z,168.70
2023-05-05T12:32:46.342Z,170.02
2023-05-05T12:35:14.429Z,171.90
2023-05-05T12:37:42.470Z,187.27
2023-05-05T12:40:45.479Z,175.75
2023-05-05T12:43:26.810Z,172.32
2023-05-05T12:46:13.326Z,175.60
2023-05-05T12:48:48.118Z,176.27
2023-05-05T12:51:21.131Z,172.25
2023-05-05T12:53:55.668Z,178.15
2023-05-05T12:56:38.118Z,186.70
2023-05-05T12:59:10.280Z,185.68
2023-05-05T13:01:48.830Z,190.07
2023-05-05T13:04:16.390Z,186.75
2023-05-05T13:06:46.011Z,182.10
2023-05-05T13:09:38.717Z,184.07
2023-05-05T13:12:08.266Z,173.07
2023-05-05T13:14:36.369Z,189.15
2023-05-05T13:17:03.648Z,194.48
2023-05-05T13:19:30.864Z,190.52
2023-05-05T13:21:58.718Z,196.77
2023-05-05T13:24:42.189Z,202.63
2023-05-05T13:27:13.321Z,188.50
2023-05-05T13:29:41.524Z,187.80
2023-05-05T13:32:08.472Z,195.90
2023-05-05T13:34:35.601Z,192.35
2023-05-05T13:37:02.575Z,183.98
2023-05-05T13:39:29.685Z,188.88
2023-05-05T13:41:56.608Z,193.27
2023-05-05T13:44:23.558Z,182.65
2023-05-05T13:46:50.548Z,186.95
2023-05-05T13:49:17.998Z,186.35
2023-05-05T13:51:46.830Z,181.25
2023-05-05T13:54:14.107Z,192.30
2023-05-05T13:56:41.169Z,192.55
2023-05-05T13:59:08.187Z,189.15
2023-05-05T14:01:35.254Z,189.70
2023-05-05T14:04:05.103Z,188.18
2023-05-05T14:06:33.576Z,190.77
2023-05-05T14:09:00.733Z,188.20
2023-05-05T14:11:27.723Z,188.63
2023-05-05T14:13:54.698Z,193.85
2023-05-05T14:16:21.682Z,193.73
2023-05-05T14:18:48.757Z,207.38
2023-05-05T14:21:15.735Z,196.40
2023-05-05T14:23:42.733Z,199.07
2023-05-05T14:26:09.683Z,204.43
2023-05-05T14:28:36.627Z,202.90
2023-05-05T14:31:03.794Z,203.80
2023-05-05T14:33:30.784Z,196.82
2023-05-05T14:35:57.754Z,196.77
2023-05-05T14:38:24.806Z,203.50
2023-05-05T14:40:51.826Z,200.85
2023-05-05T14:43:18.781Z,193.50
2023-05-05T14:45:45.812Z,200.70
2023-05-05T14:48:12.953Z,200.65
2023-05-05T14:50:42.199Z,200.73
2023-05-05T14:53:09.178Z,195.68
2023-05-05T14:55:36.196Z,199.10
2023-05-05T14:58:03.138Z,206.05
2023-05-05T15:00:30.170Z,211.32
2023-05-05T15:02:57.412Z,229.30
2023-05-05T15:05:24.405Z,236.10
2023-05-05T15:07:51.425Z,227.73
2023-05-05T15:10:20.430Z,219.18
2023-05-05T15:12:48.816Z,224.20
2023-05-05T15:15:15.863Z,226.20
2023-05-05T15:17:43.203Z,222.10
2023-05-05T15:20:10.844Z,225.60
2023-05-05T15:22:37.956Z,233.15
2023-05-05T15:25:08.985Z,225.57
2023-05-05T15:27:37.878Z,221.82
2023-05-05T15:30:06.070Z,233.55
2023-05-05T15:32:33.270Z,226.05
2023-05-05T15:35:00.475Z,228.25
2023-05-05T15:37:28.890Z,230.73
2023-05-05T15:39:56.012Z,226.15
2023-05-05T15:42:22.986Z,225.68
2023-05-05T15:44:50.491Z,228.52
2023-05-05T15:47:17.733Z,225.85
2023-05-05T15:49:44.798Z,222.85
2023-05-05T15:52:12.789Z,227.10
2023-05-05T15:54:39.813Z,225.27
2023-05-05T15:57:06.766Z,224.98
2023-05-05T15:59:33.702Z,222.00
2023-05-05T16:02:00.747Z,222.88
2023-05-05T16:04:27.788Z,227.63
2023-05-05T16:06:55.400Z,225.02
2023-05-05T16:09:22.360Z,224.15
2023-05-05T16:11:49.394Z,224.27
2023-05-05T16:14:16.354Z,223.23
2023-05-05T16:16:43.870Z,236.73
2023-05-05T16:19:10.909Z,224.35
2023-05-05T16:21:37.853Z,219.52
2023-05-05T16:24:05.080Z,223.57
2023-05-05T16:26:32.056Z,219.80
2023-05-05T16:28:59.019Z,223.65
2023-05-05T16:31:26.157Z,221.50
2023-05-05T16:33:53.079Z,222.98
2023-05-05T16:36:20.767Z,241.70
2023-05-05T16:38:48.022Z,221.30
2023-05-05T16:41:14.967Z,226.75
2023-05-05T16:43:41.877Z,227.27
2023-05-05T16:46:09.040Z,223.98
2023-05-05T16:48:36.112Z,222.63
2023-05-05T16:51:03.134Z,229.73
2023-05-05T16:53:30.124Z,249.98
2023-05-05T16:55:57.334Z,221.45
2023-05-05T16:58:24.328Z,223.68
2023-05-05T17:00:52.281Z,231.00
2023-05-05T17:03:20.418Z,227.50
2023-05-05T17:05:50.261Z,220.38
2023-05-05T17:08:17.534Z,227.85
2023-05-05T17:10:45.605Z,229.77
2023-05-05T17:13:14.461Z,222.50
2023-05-05T17:15:41.982Z,217.32
2023-05-05T17:18:09.299Z,220.73
2023-05-05T17:20:36.591Z,237.20
2023-05-05T17:23:03.708Z,223.30
2023-05-05T17:25:31.315Z,223.15
2023-05-05T17:27:58.397Z,230.00
2023-05-05T17:30:25.618Z,376.65
2023-05-05T17:32:52.684Z,220.45
2023-05-05T17:35:19.863Z,223.93
2023-05-05T17:37:46.881Z,221.95
2023-05-05T17:40:13.945Z,259.30
2023-05-05T17:42:41.072Z,219.35
2023-05-05T17:45:09.222Z,214.95
2023-05-05T17:47:36.466Z,218.68
2023-05-05T17:50:04.067Z,232.00
2023-05-05T17:52:31.243Z,219.20
2023-05-05T17:54:58.338Z,218.63
2023-05-05T17:57:25.263Z,219.82
2023-05-05T17:59:53.517Z,228.40
2023-05-05T18:02:21.051Z,221.73
2023-05-05T18:04:48.177Z,226.90
2023-05-05T18:07:15.338Z,212.93
2023-05-05T18:09:42.819Z,221.45
2023-05-05T18:12:09.849Z,227.23
2023-05-05T18:14:36.989Z,220.57
2023-05-05T18:17:04.657Z,218.85
2023-05-05T18:19:31.840Z,213.95
2023-05-05T18:21:59.126Z,229.48
2023-05-05T18:24:27.512Z,211.27
2023-05-05T18:26:54.572Z,227.52
2023-05-05T18:29:22.312Z,230.35
2023-05-05T18:31:52.993Z,230.75
2023-05-05T18:34:21.024Z,219.13
2023-05-05T18:36:50.746Z,207.65
2023-05-05T18:39:17.791Z,209.15
2023-05-05T18:42:55.800Z,212.73
2023-05-05T18:45:27.885Z,209.40
2023-05-05T18:48:04.303Z,214.10
2023-05-05T18:50:36.853Z,208.82
2023-05-05T18:53:07.534Z,211.25
2023-05-05T18:55:37.557Z,211.63
2023-05-05T18:58:09.548Z,216.02
2023-05-05T19:00:45.072Z,213.00
2023-05-05T19:03:17.304Z,208.75
2023-05-05T19:05:48.740Z,208.45
2023-05-05T19:08:17.101Z,211.52
2023-05-05T19:10:51.577Z,213.00
2023-05-05T19:13:22.972Z,207.30
2023-05-05T19:20:32.448Z,208.25
2023-05-05T19:23:03.632Z,215.80
2023-05-05T19:25:31.427Z,216.57
2023-05-05T19:27:58.458Z,207.65
2023-05-05T19:30:28.551Z,207.75
2023-05-05T19:32:55.616Z,206.75
2023-05-05T19:35:24.907Z,205.13
2023-05-05T19:37:51.843Z,207.35
2023-05-05T19:40:18.888Z,204.70
2023-05-05T19:42:45.846Z,207.07
2023-05-05T19:45:12.800Z,210.68
2023-05-05T19:47:39.833Z,207.80
2023-05-05T19:50:12.867Z,207.27
2023-05-05T19:52:43.615Z,211.35
2023-05-05T19:55:14.929Z,211.93
2023-05-05T19:57:51.401Z,206.02
2023-05-05T20:00:20.385Z,208.52
2023-05-05T20:02:51.770Z,204.98
2023-05-05T20:05:18.881Z,212.05
2023-05-05T20:07:46.959Z,205.30
2023-05-05T20:10:14.313Z,210.23
2023-05-05T20:12:48.162Z,209.75
2023-05-05T20:15:19.611Z,208.90
2023-05-05T20:17:47.548Z,214.68
2023-05-05T20:20:22.777Z,209.68
2023-05-05T20:22:49.891Z,209.32
2023-05-05T20:25:17.014Z,210.93
2023-05-05T20:27:45.509Z,215.60
2023-05-05T20:30:12.955Z,211.27
2023-05-05T20:32:40.763Z,207.23
2023-05-05T20:35:09.003Z,209.27
2023-05-05T20:37:35.982Z,205.75
2023-05-05T20:40:03.808Z,207.63
2023-05-05T20:42:30.899Z,210.70
2023-05-05T20:44:57.930Z,209.75
2023-05-05T20:47:25.028Z,209.70
2023-05-05T20:49:52.476Z,208.70
2023-05-05T20:52:19.745Z,209.45
2023-05-05T20:54:46.740Z,207.10
2023-05-05T20:57:13.737Z,205.00
2023-05-05T20:59:40.758Z,206.93
2023-05-05T21:02:07.933Z,211.43
2023-05-05T21:04:34.965Z,206.60
2023-05-05T21:07:02.882Z,204.97
2023-05-05T21:09:30.027Z,210.45
2023-05-05T21:11:57.035Z,209.00
2023-05-05T21:14:24.152Z,212.57
2023-05-05T21:16:51.286Z,211.03
2023-05-05T21:19:18.195Z,207.02
2023-05-05T21:21:45.208Z,207.77
2023-05-05T21:24:13.021Z,206.30
2023-05-05T21:26:46.092Z,206.18
2023-05-05T21:29:13.162Z,211.73
2023-05-05T21:31:40.569Z,263.35
2023-05-05T21:34:07.536Z,206.68
2023-05-05T21:36:34.457Z,206.75
2023-05-05T21:39:01.642Z,206.77
2023-05-05T21:41:28.765Z,208.10
2023-05-05T21:43:55.932Z,206.03
2023-05-05T21:46:23.077Z,206.40
2023-05-05T21:48:50.233Z,211.02
2023-05-05T21:51:17.464Z,207.27
2023-05-05T21:53:44.499Z,205.67
2023-05-05T21:56:11.522Z,209.67
2023-05-05T21:58:38.572Z,206.40
2023-05-05T22:01:05.742Z,211.93
2023-05-05T22:03:34.537Z,208.20
2023-05-05T22:06:01.684Z,205.68
2023-05-05T22:08:28.630Z,205.57
2023-05-05T22:10:55.651Z,207.50
2023-05-05T22:13:22.721Z,208.20
2023-05-05T22:15:50.198Z,212.00
2023-05-05T22:18:17.262Z,206.70
2023-05-05T22:20:44.439Z,216.87
2023-05-05T22:23:11.722Z,207.50
2023-05-05T22:25:38.770Z,204.40
2023-05-05T22:28:05.871Z,208.83
2023-05-05T22:30:32.854Z,209.13
2023-05-05T22:32:59.860Z,206.17
2023-05-05T22:35:26.989Z,206.33
2023-05-05T22:37:53.982Z,206.73
2023-05-05T22:40:20.939Z,205.10
2023-05-05T22:42:47.890Z,210.13
2023-05-05T22:45:14.969Z,202.60
2023-05-05T22:47:42.161Z,202.73
2023-05-05T22:50:09.791Z,207.77
2023-05-05T22:52:36.877Z,203.57
2023-05-05T22:55:04.354Z,209.67
2023-05-05T22:57:31.343Z,206.70
2023-05-05T22:59:58.265Z,206.50
2023-05-05T23:02:26.528Z,206.43
2023-05-05T23:04:53.845Z,200.70
2023-05-05T23:07:20.835Z,205.00
2023-05-05T23:09:48.180Z,203.80
2023-05-05T23:12:15.220Z,202.93
2023-05-05T23:14:42.152Z,204.43
2023-05-05T23:17:09.232Z,214.63
2023-05-05T23:19:36.808Z,207.07
2023-05-05T23:22:04.632Z,211.50
2023-05-05T23:24:31.663Z,202.33
2023-05-05T23:27:02.042Z,208.13
2023-05-05T23:29:29.292Z,203.70
2023-05-05T23:31:56.978Z,204.63
2023-05-05T23:34:24.313Z,200.87
2023-05-05T23:36:51.269Z,203.50
2023-05-05T23:39:18.517Z,202.67
2023-05-05T23:41:45.493Z,213.00
2023-05-05T23:44:13.340Z,205.53
2023-05-05T23:46:40.420Z,208.47
2023-05-05T23:49:07.465Z,205.53
2023-05-05T23:51:34.973Z,206.13
2023-05-05T23:54:01.990Z,201.03
2023-05-05T23:56:29.001Z,198.37
2023-05-05T23:58:56.108Z,200.60
